createdAt,value
2018-07-08T00:01:06.299Z,17.10
2018-07-08T00:03:35.087Z,17.10
2018-07-08T00:06:03.858Z,17.00
2018-07-08T00:08:32.655Z,17.00
2018-07-08T00:11:01.478Z,16.90
2018-07-08T00:13:30.320Z,16.90
2018-07-08T00:15:59.127Z,16.80
2018-07-08T00:18:27.898Z,16.80
2018-07-08T00:20:56.690Z,16.80
2018-07-08T00:23:25.684Z,16.80
2018-07-08T00:25:54.620Z,16.80
2018-07-08T00:28:24.090Z,16.80
2018-07-08T00:30:53.239Z,16.80
2018-07-08T00:33:22.071Z,16.70
2018-07-08T00:35:50.963Z,16.60
2018-07-08T00:38:19.750Z,16.60
2018-07-08T00:40:48.538Z,16.50
2018-07-08T00:43:17.306Z,16.50
2018-07-08T00:45:46.167Z,16.50
2018-07-08T00:48:15.013Z,16.50
2018-07-08T00:50:43.899Z,16.40
2018-07-08T00:53:12.663Z,16.40
2018-07-08T00:55:41.498Z,16.40
2018-07-08T00:58:10.263Z,16.40
2018-07-08T01:03:08.667Z,16.30
2018-07-08T01:05:37.450Z,16.30
2018-07-08T01:08:06.207Z,16.30
2018-07-08T01:10:35.071Z,16.20
2018-07-08T01:13:03.851Z,16.30
2018-07-08T01:15:32.703Z,16.30
2018-07-08T01:18:01.500Z,16.30
2018-07-08T01:20:30.290Z,16.30
2018-07-08T01:22:59.066Z,16.40
2018-07-08T01:25:39.535Z,16.30
2018-07-08T01:28:08.287Z,16.40
2018-07-08T01:30:37.079Z,16.40
2018-07-08T01:33:06.746Z,16.30
2018-07-08T01:35:35.529Z,16.20
2018-07-08T01:38:04.282Z,16.20
2018-07-08T01:40:33.074Z,16.20
2018-07-08T01:43:01.822Z,16.20
2018-07-08T01:45:30.595Z,16.10
2018-07-08T01:47:59.372Z,16.10
2018-07-08T01:50:28.155Z,16.10
2018-07-08T01:52:56.898Z,16.00
2018-07-08T01:55:25.683Z,16.00
2018-07-08T01:57:54.523Z,15.90
2018-07-08T02:00:23.311Z,15.90
2018-07-08T02:02:52.136Z,15.90
2018-07-08T02:05:20.919Z,15.80
2018-07-08T02:07:49.698Z,15.80
2018-07-08T02:10:18.573Z,15.80
2018-07-08T02:12:47.459Z,15.80
2018-07-08T02:15:16.246Z,15.80
2018-07-08T02:17:45.143Z,15.80
2018-07-08T02:20:13.935Z,15.80
2018-07-08T02:22:42.925Z,15.80
2018-07-08T02:25:11.706Z,15.70
2018-07-08T02:27:40.474Z,15.80
2018-07-08T02:30:09.307Z,15.70
2018-07-08T02:32:38.391Z,15.80
2018-07-08T02:35:07.203Z,15.70
2018-07-08T02:37:36.067Z,15.70
2018-07-08T02:40:05.085Z,15.70
2018-07-08T02:42:33.914Z,15.70
2018-07-08T02:45:02.670Z,15.60
2018-07-08T02:47:31.549Z,15.60
2018-07-08T02:50:00.338Z,15.60
2018-07-08T02:52:29.171Z,15.60
2018-07-08T02:54:57.943Z,15.60
2018-07-08T02:57:26.804Z,15.60
2018-07-08T02:59:55.597Z,15.70
2018-07-08T03:02:24.406Z,15.60
2018-07-08T03:04:53.402Z,15.50
2018-07-08T03:07:22.194Z,15.50
2018-07-08T03:09:50.984Z,15.50
2018-07-08T03:12:19.786Z,15.50
2018-07-08T03:14:48.544Z,15.50
2018-07-08T03:17:17.324Z,15.50
2018-07-08T03:19:46.085Z,15.50
2018-07-08T03:22:14.885Z,15.40
2018-07-08T03:24:43.666Z,15.40
2018-07-08T03:27:12.470Z,15.50
2018-07-08T03:29:41.271Z,15.50
2018-07-08T03:32:10.082Z,15.60
2018-07-08T03:34:38.946Z,15.60
2018-07-08T03:37:07.781Z,15.70
2018-07-08T03:39:36.566Z,15.70
2018-07-08T03:42:05.318Z,15.70
2018-07-08T03:44:34.099Z,15.70
2018-07-08T03:47:02.986Z,15.70
2018-07-08T03:49:31.786Z,15.70
2018-07-08T03:52:00.570Z,15.80
2018-07-08T03:54:30.474Z,15.90
2018-07-08T03:56:59.275Z,15.90
2018-07-08T03:59:28.241Z,16.00
2018-07-08T04:01:56.951Z,16.00
2018-07-08T04:04:25.768Z,16.00
2018-07-08T04:06:54.527Z,16.10
2018-07-08T04:09:23.326Z,16.20
2018-07-08T04:11:52.095Z,16.20
2018-07-08T04:14:20.998Z,16.10
2018-07-08T04:16:49.883Z,16.10
2018-07-08T04:19:18.698Z,16.00
2018-07-08T04:21:47.462Z,15.90
2018-07-08T04:24:16.643Z,15.80
2018-07-08T04:26:45.432Z,15.90
2018-07-08T04:29:14.243Z,15.90
2018-07-08T04:31:43.013Z,16.00
2018-07-08T04:34:12.458Z,16.10
2018-07-08T04:36:41.195Z,16.10
2018-07-08T04:41:38.699Z,15.90
2018-07-08T04:44:07.495Z,16.00
2018-07-08T04:46:36.252Z,16.10
2018-07-08T04:49:05.038Z,16.10
2018-07-08T04:51:33.798Z,16.10
2018-07-08T04:54:02.594Z,16.10
2018-07-08T04:56:31.334Z,16.00
2018-07-08T04:59:00.436Z,16.00
2018-07-08T05:01:29.194Z,16.20
2018-07-08T05:03:57.996Z,16.10
2018-07-08T05:06:26.778Z,16.20
2018-07-08T05:08:55.556Z,16.10
2018-07-08T05:11:24.296Z,16.10
2018-07-08T05:13:53.123Z,16.00
2018-07-08T05:16:22.050Z,15.90
2018-07-08T05:18:50.846Z,16.00
2018-07-08T05:21:19.687Z,16.00
2018-07-08T05:23:48.576Z,16.00
2018-07-08T05:26:17.298Z,16.00
2018-07-08T05:28:46.128Z,16.10
2018-07-08T05:31:14.870Z,16.10
2018-07-08T05:33:43.657Z,16.30
2018-07-08T05:36:12.474Z,16.50
2018-07-08T05:38:41.253Z,16.50
2018-07-08T05:41:10.040Z,16.50
2018-07-08T05:43:38.834Z,16.50
2018-07-08T05:46:07.634Z,16.50
2018-07-08T05:48:36.479Z,16.60
2018-07-08T05:51:05.223Z,16.70
2018-07-08T05:53:33.996Z,16.90
2018-07-08T05:56:02.784Z,16.90
2018-07-08T05:58:31.579Z,16.80
2018-07-08T06:01:00.336Z,16.80
2018-07-08T06:03:29.146Z,16.70
2018-07-08T06:05:57.962Z,16.90
2018-07-08T06:08:26.794Z,16.90
2018-07-08T06:10:55.614Z,17.00
2018-07-08T06:13:24.397Z,17.00
2018-07-08T06:15:53.546Z,17.00
2018-07-08T06:18:22.406Z,17.00
2018-07-08T06:20:51.439Z,17.20
2018-07-08T06:23:20.398Z,17.20
2018-07-08T06:25:49.185Z,17.10
2018-07-08T06:28:17.944Z,17.00
2018-07-08T06:30:46.850Z,16.80
2018-07-08T06:33:15.648Z,16.80
2018-07-08T06:35:44.437Z,16.90
2018-07-08T06:38:13.224Z,16.70
2018-07-08T06:40:42.019Z,16.90
2018-07-08T06:43:10.799Z,16.80
2018-07-08T06:45:39.653Z,16.90
2018-07-08T06:48:08.406Z,16.90
2018-07-08T06:50:37.273Z,17.00
2018-07-08T06:53:06.020Z,17.10
2018-07-08T06:55:34.801Z,17.00
2018-07-08T06:58:03.558Z,17.00
2018-07-08T07:00:32.335Z,17.10
2018-07-08T07:03:01.189Z,17.10
2018-07-08T07:05:29.994Z,17.20
2018-07-08T07:07:58.788Z,17.30
2018-07-08T07:10:28.610Z,17.30
2018-07-08T07:12:57.532Z,17.30
2018-07-08T07:15:26.525Z,17.30
2018-07-08T07:17:55.277Z,17.60
2018-07-08T07:20:24.073Z,17.80
2018-07-08T07:22:52.925Z,17.70
2018-07-08T07:25:21.735Z,17.70
2018-07-08T07:27:50.503Z,17.90
2018-07-08T07:30:19.422Z,17.90
2018-07-08T07:32:48.224Z,18.10
2018-07-08T07:35:17.059Z,17.90
2018-07-08T07:37:45.814Z,18.20
2018-07-08T07:40:14.705Z,18.40
2018-07-08T07:42:43.455Z,18.70
2018-07-08T07:45:12.239Z,18.90
2018-07-08T07:47:40.993Z,19.00
2018-07-08T07:50:09.767Z,19.20
2018-07-08T07:52:38.658Z,19.40
2018-07-08T07:55:07.454Z,19.30
2018-07-08T07:57:36.322Z,19.20
2018-07-08T08:00:06.127Z,19.00
2018-07-08T08:02:34.924Z,19.20
2018-07-08T08:05:03.767Z,19.40
2018-07-08T08:07:32.550Z,19.30
2018-07-08T08:10:01.302Z,19.40
2018-07-08T08:12:30.086Z,19.60
2018-07-08T08:14:58.876Z,19.70
2018-07-08T08:17:27.754Z,19.70
2018-07-08T08:19:56.607Z,19.90
2018-07-08T08:22:25.436Z,19.70
2018-07-08T08:24:54.227Z,19.90
2018-07-08T08:27:23.134Z,20.10
2018-07-08T08:29:51.914Z,19.70
2018-07-08T08:32:20.719Z,19.90
2018-07-08T08:35:22.711Z,19.90
2018-07-08T08:37:56.770Z,20.00
2018-07-08T08:40:28.577Z,20.10
2018-07-08T08:42:57.334Z,20.10
2018-07-08T08:45:27.674Z,20.30
2018-07-08T08:47:56.434Z,20.50
2018-07-08T08:50:25.267Z,20.40
2018-07-08T08:52:54.177Z,20.20
2018-07-08T08:55:22.942Z,20.20
2018-07-08T08:57:51.699Z,20.20
2018-07-08T09:00:20.946Z,20.10
2018-07-08T09:02:49.692Z,20.10
2018-07-08T09:05:18.474Z,20.40
2018-07-08T09:07:47.314Z,20.40
2018-07-08T09:10:16.070Z,20.40
2018-07-08T09:12:44.874Z,20.40
2018-07-08T09:15:13.759Z,20.70
2018-07-08T09:17:42.547Z,20.90
2018-07-08T09:20:11.461Z,21.20
2018-07-08T09:22:40.269Z,21.00
2018-07-08T09:25:09.019Z,20.90
2018-07-08T09:27:37.786Z,20.90
2018-07-08T09:30:06.555Z,20.90
2018-07-08T09:32:35.352Z,20.70
2018-07-08T09:35:04.201Z,20.50
2018-07-08T09:37:32.996Z,20.80
2018-07-08T09:40:01.753Z,21.00
2018-07-08T09:42:30.551Z,20.80
2018-07-08T09:44:59.417Z,20.80
2018-07-08T09:47:28.559Z,20.70
2018-07-08T09:49:57.297Z,20.90
2018-07-08T09:52:26.210Z,21.20
2018-07-08T09:54:54.950Z,21.50
2018-07-08T09:57:23.833Z,21.60
2018-07-08T09:59:52.578Z,21.70
2018-07-08T10:02:22.112Z,21.70
2018-07-08T10:04:50.942Z,21.90
2018-07-08T10:07:19.753Z,22.00
2018-07-08T10:12:17.071Z,22.30
2018-07-08T10:14:45.896Z,22.40
2018-07-08T10:17:14.701Z,22.60
2018-07-08T10:19:43.556Z,22.60
2018-07-08T10:22:12.315Z,22.80
2018-07-08T10:24:41.224Z,23.20
2018-07-08T10:28:16.890Z,23.20
2018-07-08T10:30:45.805Z,23.20
2018-07-08T10:33:14.664Z,23.50
2018-07-08T10:35:52.450Z,23.30
2018-07-08T10:38:21.303Z,23.40
2018-07-08T10:40:50.044Z,23.60
2018-07-08T10:43:19.000Z,23.30
2018-07-08T10:45:47.751Z,22.80
2018-07-08T10:48:16.969Z,22.80
2018-07-08T10:50:45.815Z,22.70
2018-07-08T10:53:14.619Z,23.00
2018-07-08T10:55:43.491Z,23.00
2018-07-08T10:58:12.708Z,23.40
2018-07-08T11:00:41.519Z,23.70
2018-07-08T11:03:10.495Z,23.70
2018-07-08T11:05:39.350Z,23.80
2018-07-08T11:08:08.196Z,23.50
2018-07-08T11:10:37.019Z,23.30
2018-07-08T11:13:06.019Z,23.20
2018-07-08T11:15:34.952Z,23.00
2018-07-08T11:18:03.779Z,23.30
2018-07-08T11:20:32.540Z,23.50
2018-07-08T11:23:01.299Z,23.70
2018-07-08T11:25:30.155Z,23.40
2018-07-08T11:27:59.079Z,23.50
2018-07-08T11:30:27.870Z,23.80
2018-07-08T11:32:57.090Z,23.90
2018-07-08T11:35:25.958Z,23.70
2018-07-08T11:37:54.767Z,23.40
2018-07-08T11:40:23.520Z,23.30
2018-07-08T11:42:52.524Z,23.10
2018-07-08T11:45:21.241Z,22.90
2018-07-08T11:47:50.027Z,22.60
2018-07-08T11:50:19.806Z,22.70
2018-07-08T11:52:48.793Z,22.90
2018-07-08T11:55:17.630Z,22.90
2018-07-08T11:57:46.453Z,23.10
2018-07-08T12:00:15.235Z,23.30
2018-07-08T12:02:44.075Z,23.40
2018-07-08T12:05:12.914Z,23.40
2018-07-08T12:07:41.706Z,23.70
2018-07-08T12:10:11.595Z,24.40
2018-07-08T12:12:40.411Z,25.30
2018-07-08T12:17:44.466Z,27.30
2018-07-08T12:20:14.076Z,26.90
2018-07-08T12:22:43.007Z,26.60
2018-07-08T12:25:12.131Z,27.00
2018-07-08T12:27:40.999Z,27.70
2018-07-08T12:30:09.791Z,29.60
2018-07-08T12:32:38.571Z,30.40
2018-07-08T12:35:07.575Z,31.20
2018-07-08T12:37:36.334Z,34.10
2018-07-08T12:45:02.143Z,34.10
2018-07-08T12:47:30.918Z,33.40
2018-07-08T12:49:59.749Z,32.30
2018-07-08T12:52:28.811Z,32.90
2018-07-08T12:54:58.010Z,33.80
2018-07-08T12:57:26.901Z,34.10
2018-07-08T12:59:55.739Z,33.30
2018-07-08T13:02:24.530Z,34.30
2018-07-08T13:04:53.423Z,34.30
2018-07-08T13:07:22.423Z,34.10
2018-07-08T13:09:51.210Z,34.80
2018-07-08T13:12:20.002Z,34.80
2018-07-08T13:14:48.799Z,34.50
2018-07-08T13:17:17.675Z,34.80
2018-07-08T13:19:46.871Z,33.80
2018-07-08T13:22:15.616Z,32.20
2018-07-08T13:24:44.431Z,32.40
2018-07-08T13:27:13.186Z,32.90
2018-07-08T13:29:42.451Z,33.60
2018-07-08T13:32:11.314Z,34.90
2018-07-08T13:37:08.560Z,36.40
2018-07-08T13:39:37.312Z,37.60
2018-07-08T13:42:06.079Z,38.20
2018-07-08T13:44:35.002Z,38.90
2018-07-08T13:47:03.805Z,39.10
2018-07-08T13:49:32.574Z,37.50
2018-07-08T13:52:01.316Z,36.10
2018-07-08T13:56:58.670Z,34.30
2018-07-08T13:59:27.435Z,33.60
2018-07-08T14:01:56.199Z,35.00
2018-07-08T14:04:25.095Z,36.20
2018-07-08T14:06:54.333Z,36.40
2018-07-08T14:09:23.254Z,36.50
2018-07-08T14:11:52.111Z,37.00
2018-07-08T14:14:20.941Z,36.40
2018-07-08T14:16:49.757Z,35.20
2018-07-08T14:19:18.553Z,32.70
2018-07-08T14:21:47.467Z,31.80
2018-07-08T14:24:16.311Z,32.60
2018-07-08T14:26:45.216Z,31.60
2018-07-08T14:29:14.037Z,30.70
2018-07-08T14:31:42.993Z,31.70
2018-07-08T14:34:12.415Z,32.10
2018-07-08T14:36:41.274Z,32.60
2018-07-08T14:39:10.742Z,34.20
2018-07-08T14:41:39.577Z,34.60
2018-07-08T14:44:08.568Z,35.70
2018-07-08T14:46:37.617Z,36.30
2018-07-08T14:49:06.371Z,34.90
2018-07-08T14:51:35.255Z,34.00
2018-07-08T14:54:04.036Z,32.50
2018-07-08T14:56:32.833Z,33.00
2018-07-08T14:59:02.243Z,32.70
2018-07-08T15:01:34.202Z,32.10
2018-07-08T15:04:02.958Z,33.00
2018-07-08T15:09:06.011Z,34.60
2018-07-08T15:11:34.831Z,34.30
2018-07-08T15:14:03.668Z,34.00
2018-07-08T15:16:32.547Z,33.20
2018-07-08T15:21:29.852Z,33.10
2018-07-08T15:23:58.640Z,32.80
2018-07-08T15:26:27.395Z,32.40
2018-07-08T15:28:56.165Z,31.40
2018-07-08T15:31:24.969Z,30.30
2018-07-08T15:33:53.731Z,29.90
2018-07-08T15:38:51.015Z,29.70
2018-07-08T15:41:20.117Z,30.30
2018-07-08T15:46:17.379Z,31.50
2018-07-08T15:51:14.651Z,32.40
2018-07-08T15:53:43.460Z,32.90
2018-07-08T15:56:13.017Z,33.30
2018-07-08T15:58:41.794Z,33.50
2018-07-08T16:01:10.594Z,34.60
2018-07-08T16:03:39.348Z,35.00
2018-07-08T16:06:08.174Z,35.10
2018-07-08T16:08:36.904Z,33.60
2018-07-08T16:11:06.911Z,34.30
2018-07-08T16:13:36.126Z,35.00
2018-07-08T16:16:05.063Z,35.10
2018-07-08T16:18:33.931Z,33.20
2018-07-08T16:21:03.413Z,32.50
2018-07-08T16:23:32.313Z,31.40
2018-07-08T16:26:01.234Z,31.00
2018-07-08T16:28:30.279Z,31.00
2018-07-08T16:30:59.087Z,31.20
2018-07-08T16:33:28.461Z,30.60
2018-07-08T16:35:57.681Z,30.40
2018-07-08T16:38:26.575Z,30.40
2018-07-08T16:40:56.069Z,30.90
2018-07-08T16:43:25.299Z,31.30
2018-07-08T16:45:54.150Z,31.50
2018-07-08T16:50:51.439Z,32.10
2018-07-08T16:53:20.252Z,31.80
2018-07-08T16:55:48.984Z,30.80
2018-07-08T16:58:17.858Z,30.20
2018-07-08T17:00:46.621Z,30.50
2018-07-08T17:03:15.443Z,30.80
2018-07-08T17:05:44.277Z,31.10
2018-07-08T17:08:13.074Z,31.40
2018-07-08T17:10:41.861Z,31.00
2018-07-08T17:13:10.685Z,31.50
2018-07-08T17:15:39.458Z,31.80
2018-07-08T17:18:08.264Z,32.00
2018-07-08T17:20:37.125Z,31.50
2018-07-08T17:23:06.003Z,31.10
2018-07-08T17:25:34.803Z,31.40
2018-07-08T17:28:04.073Z,31.20
2018-07-08T17:35:30.076Z,32.50
2018-07-08T17:37:58.962Z,33.20
2018-07-08T17:40:27.834Z,33.30
2018-07-08T17:42:56.700Z,32.90
2018-07-08T17:45:25.463Z,32.60
2018-07-08T17:47:54.239Z,32.90
2018-07-08T17:50:23.321Z,33.30
2018-07-08T17:52:52.748Z,32.90
2018-07-08T17:55:21.531Z,31.90
2018-07-08T17:57:50.399Z,32.10
2018-07-08T18:00:19.158Z,31.90
2018-07-08T18:05:16.530Z,31.20
2018-07-08T18:10:13.906Z,31.70
2018-07-08T18:15:11.318Z,31.00
2018-07-08T18:17:40.444Z,30.50
2018-07-08T18:20:09.303Z,30.40
2018-07-08T18:22:38.276Z,30.20
2018-07-08T18:25:07.167Z,30.50
2018-07-08T18:27:36.085Z,30.30
2018-07-08T18:30:05.439Z,30.10
2018-07-08T18:32:34.242Z,30.20
2018-07-08T18:35:03.012Z,30.20
2018-07-08T18:37:32.755Z,30.60
2018-07-08T18:40:01.530Z,30.50
2018-07-08T18:42:30.438Z,30.30
2018-07-08T18:44:59.311Z,29.70
2018-07-08T18:47:28.086Z,30.10
2018-07-08T18:49:57.313Z,29.50
2018-07-08T18:52:26.115Z,29.30
2018-07-08T18:54:54.970Z,29.10
2018-07-08T18:57:23.816Z,28.90
2018-07-08T18:59:52.900Z,28.60
2018-07-08T19:02:22.497Z,28.30
2018-07-08T19:04:51.287Z,28.20
2018-07-08T19:07:20.101Z,28.00
2018-07-08T19:09:48.870Z,27.50
2018-07-08T19:12:17.659Z,27.30
2018-07-08T19:14:46.798Z,26.80
2018-07-08T19:17:15.619Z,26.20
2018-07-08T19:19:44.431Z,26.00
2018-07-08T19:22:13.198Z,25.90
2018-07-08T19:24:42.224Z,25.80
2018-07-08T19:27:11.322Z,25.60
2018-07-08T19:29:40.253Z,25.30
2018-07-08T19:32:09.052Z,25.10
2018-07-08T19:34:37.871Z,24.90
2018-07-08T19:37:06.768Z,24.70
2018-07-08T19:39:35.556Z,24.60
2018-07-08T19:42:04.320Z,24.50
2018-07-08T19:44:33.154Z,24.40
2018-07-08T19:47:01.923Z,24.30
2018-07-08T19:49:30.727Z,24.10
2018-07-08T19:51:59.502Z,24.10
2018-07-08T19:54:28.323Z,24.00
2018-07-08T19:56:57.093Z,24.00
2018-07-08T19:59:25.874Z,23.90
2018-07-08T20:01:54.639Z,23.80
2018-07-08T20:04:23.511Z,23.80
2018-07-08T20:06:52.345Z,23.80
2018-07-08T20:09:21.159Z,23.80
2018-07-08T20:11:50.133Z,23.70
2018-07-08T20:14:18.915Z,23.60
2018-07-08T20:16:47.894Z,23.60
2018-07-08T20:19:16.726Z,23.50
2018-07-08T20:21:45.587Z,23.40
2018-07-08T20:24:14.378Z,23.40
2018-07-08T20:26:43.272Z,23.30
2018-07-08T20:29:12.204Z,23.30
2018-07-08T20:31:41.774Z,23.10
2018-07-08T20:34:10.790Z,23.10
2018-07-08T20:36:39.654Z,23.00
2018-07-08T20:39:08.768Z,23.00
2018-07-08T20:41:37.950Z,23.00
2018-07-08T20:44:06.849Z,22.90
2018-07-08T20:46:35.602Z,22.90
2018-07-08T20:49:04.523Z,22.90
2018-07-08T20:51:33.461Z,22.80
2018-07-08T20:54:02.218Z,22.70
2018-07-08T20:56:30.992Z,22.60
2018-07-08T20:58:59.782Z,22.60
2018-07-08T21:01:28.706Z,22.50
2018-07-08T21:03:57.512Z,22.50
2018-07-08T21:06:26.318Z,22.40
2018-07-08T21:08:55.067Z,22.40
2018-07-08T21:11:23.858Z,22.30
2018-07-08T21:13:52.908Z,22.20
2018-07-08T21:16:21.743Z,22.20
2018-07-08T21:18:50.650Z,22.10
2018-07-08T21:21:19.428Z,22.10
2018-07-08T21:23:48.524Z,22.10
2018-07-08T21:26:17.386Z,22.00
2018-07-08T21:28:46.170Z,22.00
2018-07-08T21:31:15.027Z,21.90
2018-07-08T21:33:43.763Z,22.00
2018-07-08T21:36:12.558Z,21.90
2018-07-08T21:38:41.616Z,21.90
2018-07-08T21:41:10.428Z,21.90
2018-07-08T21:43:39.345Z,21.90
2018-07-08T21:46:08.316Z,21.80
2018-07-08T21:48:37.102Z,21.80
2018-07-08T21:51:06.087Z,21.70
2018-07-08T21:53:34.851Z,21.80
2018-07-08T21:56:04.106Z,21.70
2018-07-08T21:58:32.937Z,21.70
2018-07-08T22:01:10.727Z,21.70
2018-07-08T22:03:39.675Z,21.70
2018-07-08T22:06:08.571Z,21.70
2018-07-08T22:08:37.348Z,21.60
2018-07-08T22:11:07.634Z,21.50
2018-07-08T22:13:36.893Z,21.50
2018-07-08T22:16:05.765Z,21.50
2018-07-08T22:18:35.074Z,21.50
2018-07-08T22:21:04.482Z,21.50
2018-07-08T22:23:33.761Z,21.40
2018-07-08T22:26:02.990Z,21.30
2018-07-08T22:28:32.479Z,21.30
2018-07-08T22:31:01.609Z,21.30
2018-07-08T22:33:30.404Z,21.30
2018-07-08T22:35:59.252Z,21.20
2018-07-08T22:38:28.085Z,21.20
2018-07-08T22:40:56.870Z,21.20
2018-07-08T22:43:25.668Z,21.20
2018-07-08T22:45:54.510Z,21.20
2018-07-08T22:48:23.275Z,21.10
2018-07-08T22:50:52.087Z,21.10
2018-07-08T22:53:20.919Z,21.20
2018-07-08T22:55:49.768Z,21.20
2018-07-08T22:58:18.562Z,21.20
2018-07-08T23:00:58.813Z,21.20
2018-07-08T23:04:03.878Z,21.20
2018-07-08T23:06:32.963Z,21.20
2018-07-08T23:09:01.747Z,21.20
2018-07-08T23:11:30.707Z,21.20
2018-07-08T23:13:59.830Z,21.20
2018-07-08T23:16:29.069Z,21.20
2018-07-08T23:18:57.836Z,21.20
2018-07-08T23:21:26.720Z,21.20
2018-07-08T23:23:55.486Z,21.20
2018-07-08T23:28:52.966Z,21.20
2018-07-08T23:31:21.751Z,21.20
2018-07-08T23:36:19.140Z,21.20
2018-07-08T23:38:47.933Z,21.20
2018-07-08T23:41:16.734Z,21.10
2018-07-08T23:43:45.523Z,21.00
2018-07-08T23:46:14.270Z,20.90
2018-07-08T23:48:43.104Z,20.90
2018-07-08T23:51:11.850Z,20.80
2018-07-08T23:53:40.675Z,20.80
2018-07-08T23:56:09.430Z,20.80
2018-07-08T23:58:38.905Z,20.80
